GCC Virtual Airport Information Service

Istanbul Airport

ICAO: LTFM Country: TR
Latitude: 41.2599 Longitude: 28.7427
Latest Arrival : MSR735 (HECA-LTFM) Latest Departure : MSR736 (LTFM-HECA)


WX CaptureLIVE
Data provided by noaa.gov | Fetched at 12:41:50

METAR : LTFM 051220Z 22022KT CAVOK 16/03 Q1016 NOSIG

TAF : LTFM 051040Z 0512/0618 21019KT CAVOK BECMG 0513/0517 21009KT BECMG 0604/0607 SCT035 BKN090 BECMG 0607/0609 36015KT BECMG 0609/0611 -SHRA BKN020 BKN080 TEMPO 0612/0616 4000 SHRA


Runway Data for LTFM
Data provided by openaviationdata.com

Runway ID Mag Var Hdg Length Elevation Surface ILS Freq ILS Id ILS Slope

Istanbul Airport, TR
Use only for reference purposes



Not for navigational purposes.